Time;durP1;ratioP1;P1;durP2;ratioP2;P2;SDS_P1;SDS_P2;PMS_P1;PMS_P2;Temp;Humidity;BMP_temperature;BMP_pressure;BME280_temperature;BME280_humidity;BME280_pressure;Samples;Min_cycle;Max_cycle;Signal;HPM_P1;HPM_P2
2022/05/25 00:00:37;;;;;;;1.60;0.70;;;15.80;99.90;;;;;;5033168;28;20212;-80
2022/05/25 00:03:05;;;;;;;1.50;0.60;;;15.80;99.90;;;;;;5049429;28;20229;-81
2022/05/25 00:05:30;;;;;;;2.40;0.63;;;15.80;99.90;;;;;;5033663;28;20638;-81
2022/05/25 00:07:58;;;;;;;1.70;0.77;;;15.70;99.90;;;;;;5033824;28;20682;-80
2022/05/25 00:10:24;;;;;;;2.20;0.80;;;15.80;99.90;;;;;;5031844;28;21092;-80
2022/05/25 00:12:50;;;;;;;1.40;0.70;;;15.70;99.90;;;;;;5049311;28;20244;-81
2022/05/25 00:15:16;;;;;;;1.40;0.90;;;15.70;99.90;;;;;;5034752;28;20624;-80
2022/05/25 00:17:42;;;;;;;1.70;0.80;;;15.60;99.90;;;;;;5038068;28;20560;-80
2022/05/25 00:20:10;;;;;;;1.60;0.80;;;15.60;99.90;;;;;;5048198;28;20998;-80
2022/05/25 00:22:51;;;;;;;1.40;0.70;;;15.60;99.90;;;;;;5034034;28;20607;-80
2022/05/25 00:25:21;;;;;;;1.40;0.80;;;15.50;99.90;;;;;;5033902;28;20564;-80
2022/05/25 00:27:48;;;;;;;2.30;0.75;;;15.50;99.90;;;;;;5032706;28;20572;-80
2022/05/25 00:30:16;;;;;;;1.83;0.80;;;15.40;99.90;;;;;;5035078;28;20174;-80
2022/05/25 00:32:42;;;;;;;2.03;0.82;;;15.40;99.90;;;;;;5049556;28;20611;-80
2022/05/25 00:35:12;;;;;;;1.80;0.80;;;15.30;99.90;;;;;;5051536;28;20220;-80
2022/05/25 00:37:39;;;;;;;2.30;0.70;;;15.30;99.90;;;;;;5033314;28;20594;-80
2022/05/25 00:40:10;;;;;;;1.53;0.77;;;15.30;99.90;;;;;;5039557;28;21174;-80
2022/05/25 00:42:37;;;;;;;1.33;0.90;;;15.20;99.90;;;;;;5044831;28;20603;-80
2022/05/25 00:45:05;;;;;;;2.75;0.88;;;15.20;99.90;;;;;;5053238;28;20572;-80
2022/05/25 00:47:32;;;;;;;1.92;0.90;;;15.10;99.90;;;;;;5053420;28;20169;-80
2022/05/25 00:49:58;;;;;;;2.20;1.00;;;15.10;99.90;;;;;;5052218;28;20173;-80
2022/05/25 00:52:26;;;;;;;3.58;1.05;;;15.00;99.90;;;;;;5053329;28;20188;-80
2022/05/25 00:55:02;;;;;;;1.90;0.77;;;15.00;99.90;;;;;;5053839;28;20262;-80
2022/05/25 00:57:33;;;;;;;2.75;0.90;;;14.90;99.90;;;;;;5053469;28;20165;-80
2022/05/25 01:00:04;;;;;;;3.85;0.82;;;14.90;99.90;;;;;;5051026;28;20161;-80
2022/05/25 01:02:33;;;;;;;2.58;0.93;;;14.90;99.90;;;;;;5052871;28;20279;-79
2022/05/25 01:04:59;;;;;;;2.85;0.80;;;14.80;99.90;;;;;;5052520;28;20199;-80
2022/05/25 01:07:46;;;;;;;2.57;0.90;;;14.80;99.90;;;;;;5042527;28;20674;-79
2022/05/25 01:10:36;;;;;;;1.80;0.80;;;14.80;99.90;;;;;;5012423;28;20553;-80
2022/05/25 01:13:14;;;;;;;2.28;0.70;;;14.80;99.90;;;;;;5028064;28;20194;-80
2022/05/25 01:16:21;;;;;;;1.30;0.75;;;14.70;99.90;;;;;;5027954;28;20206;-80
2022/05/25 01:18:50;;;;;;;1.77;0.85;;;14.70;99.90;;;;;;5028009;28;20240;-79
2022/05/25 01:21:31;;;;;;;1.88;0.88;;;14.60;99.90;;;;;;5027264;28;20193;-79
2022/05/25 01:23:56;;;;;;;1.90;0.90;;;14.70;99.90;;;;;;5012959;28;20523;-80
2022/05/25 01:26:51;;;;;;;1.60;0.83;;;14.60;99.90;;;;;;5012754;28;20162;-80
2022/05/25 01:29:39;;;;;;;2.25;1.25;;;14.60;99.90;;;;;;5027641;28;20189;-79
2022/05/25 01:32:18;;;;;;;1.95;0.90;;;14.60;99.90;;;;;;5030538;28;20195;-80
2022/05/25 01:34:53;;;;;;;1.75;0.80;;;14.60;99.90;;;;;;5012506;28;20272;-79
2022/05/25 01:37:24;;;;;;;2.80;1.13;;;14.60;99.90;;;;;;5012587;28;20162;-79
2022/05/25 01:39:59;;;;;;;1.30;0.70;;;14.60;99.90;;;;;;5011733;28;20173;-79
2022/05/25 01:42:30;;;;;;;1.92;0.95;;;14.60;99.90;;;;;;5012572;28;20240;-80
2022/05/25 01:45:02;;;;;;;1.55;0.80;;;14.60;99.90;;;;;;5012690;28;20232;-79
2022/05/25 01:47:30;;;;;;;1.40;0.85;;;14.60;99.90;;;;;;5027274;28;20209;-80
2022/05/25 01:50:01;;;;;;;1.85;0.80;;;14.50;99.90;;;;;;5012028;28;20265;-80
2022/05/25 01:52:31;;;;;;;1.75;0.90;;;14.50;99.90;;;;;;5012901;28;20722;-79
2022/05/25 01:55:02;;;;;;;1.80;0.90;;;14.50;99.90;;;;;;5027718;28;20209;-79
2022/05/25 01:57:33;;;;;;;2.53;1.00;;;14.40;99.90;;;;;;5012397;28;20205;-79
2022/05/25 01:59:59;;;;;;;1.90;1.02;;;14.40;99.90;;;;;;5012014;28;20595;-80
2022/05/25 02:05:15;;;;;;;1.70;0.88;;;14.40;99.90;;;;;;5013350;28;20174;-79
2022/05/25 02:07:59;;;;;;;2.10;0.90;;;14.40;99.90;;;;;;5029558;28;20201;-79
2022/05/25 02:10:30;;;;;;;1.30;0.73;;;14.30;99.90;;;;;;5011713;28;20170;-80
2022/05/25 02:13:15;;;;;;;2.67;1.20;;;14.30;99.90;;;;;;5012201;28;20197;-80
2022/05/25 02:16:03;;;;;;;2.88;0.90;;;14.30;99.90;;;;;;5012292;28;20208;-81
2022/05/25 02:18:49;;;;;;;2.15;1.17;;;14.30;99.90;;;;;;5012640;28;20166;-79
2022/05/25 02:21:29;;;;;;;2.53;0.80;;;14.30;99.90;;;;;;5011230;28;20535;-80
2022/05/25 02:24:09;;;;;;;2.55;1.10;;;14.30;99.90;;;;;;5013354;28;20166;-80
2022/05/25 02:26:53;;;;;;;2.10;1.15;;;14.20;99.90;;;;;;5027576;28;20197;-80
2022/05/25 02:29:24;;;;;;;2.28;1.13;;;14.20;99.90;;;;;;5026818;28;20261;-80
2022/05/25 02:31:56;;;;;;;3.53;1.10;;;14.20;99.90;;;;;;5011777;28;20186;-80
2022/05/25 02:34:24;;;;;;;3.92;1.20;;;14.20;99.90;;;;;;5027662;28;20201;-80
2022/05/25 02:36:51;;;;;;;3.45;0.98;;;14.20;99.90;;;;;;5028592;28;20174;-80
2022/05/25 02:39:17;;;;;;;2.42;1.10;;;14.10;99.90;;;;;;5012064;28;20174;-79
2022/05/25 02:41:48;;;;;;;1.80;0.90;;;14.10;99.90;;;;;;5027663;28;20418;-79
2022/05/25 02:44:15;;;;;;;2.00;1.00;;;14.10;99.90;;;;;;5016528;28;20258;-79
2022/05/25 02:46:40;;;;;;;4.90;1.23;;;14.10;99.90;;;;;;5027746;28;20642;-80
2022/05/25 02:49:07;;;;;;;3.87;1.60;;;14.10;99.90;;;;;;5026370;28;20181;-80
2022/05/25 02:51:33;;;;;;;1.67;0.80;;;14.10;99.90;;;;;;5010100;28;20181;-79
2022/05/25 02:53:59;;;;;;;2.60;0.90;;;14.10;99.90;;;;;;5026453;28;20161;-80
2022/05/25 02:56:25;;;;;;;2.03;0.97;;;14.10;99.90;;;;;;5011227;28;20170;-80
2022/05/25 02:58:50;;;;;;;2.70;1.00;;;14.10;99.90;;;;;;5026031;28;20171;-80
2022/05/25 03:01:16;;;;;;;2.07;1.00;;;14.10;99.90;;;;;;5010623;28;20170;-80
2022/05/25 03:03:42;;;;;;;4.37;1.10;;;14.10;99.90;;;;;;5026348;28;20194;-80
2022/05/25 03:06:08;;;;;;;3.30;0.90;;;14.00;99.90;;;;;;5011202;28;20166;-80
2022/05/25 03:08:35;;;;;;;3.47;1.10;;;14.00;99.90;;;;;;5025703;28;20185;-80
2022/05/25 03:11:05;;;;;;;1.90;0.90;;;14.00;99.90;;;;;;5030038;28;20587;-80
2022/05/25 03:13:31;;;;;;;1.95;0.90;;;14.00;99.90;;;;;;5031090;28;20262;-80
2022/05/25 03:16:00;;;;;;;1.50;0.80;;;14.00;99.90;;;;;;5030659;28;20197;-80
2022/05/25 03:18:27;;;;;;;1.40;0.80;;;14.00;99.90;;;;;;5032375;28;20166;-80
2022/05/25 03:20:52;;;;;;;2.70;1.10;;;14.00;99.90;;;;;;5035458;28;20177;-80
2022/05/25 03:23:18;;;;;;;2.33;1.10;;;14.00;99.90;;;;;;5035401;28;20182;-80
2022/05/25 03:25:46;;;;;;;1.95;1.00;;;14.00;99.90;;;;;;5049986;28;20170;-80
2022/05/25 03:28:12;;;;;;;1.98;1.00;;;14.00;99.90;;;;;;5050002;28;20172;-80
2022/05/25 03:30:40;;;;;;;2.13;1.20;;;14.10;99.90;;;;;;5049092;28;20166;-80
2022/05/25 03:33:05;;;;;;;1.98;1.00;;;14.10;99.90;;;;;;5034638;28;20193;-79
2022/05/25 03:35:31;;;;;;;1.60;0.90;;;14.10;99.90;;;;;;5034218;28;20207;-80
2022/05/25 03:37:58;;;;;;;2.63;1.50;;;14.10;99.90;;;;;;5050849;28;20173;-81
2022/05/25 03:40:25;;;;;;;3.50;1.45;;;14.10;99.90;;;;;;5032117;28;20175;-81
2022/05/25 03:42:50;;;;;;;3.28;1.15;;;14.00;99.90;;;;;;5033884;28;20680;-81
2022/05/25 03:45:17;;;;;;;3.30;1.00;;;14.10;99.90;;;;;;5016308;28;20177;-81
2022/05/25 03:47:43;;;;;;;2.53;0.93;;;14.00;99.90;;;;;;5034276;28;20979;-80
2022/05/25 03:50:09;;;;;;;1.83;1.03;;;14.00;99.90;;;;;;5033400;28;20197;-81
2022/05/25 03:52:36;;;;;;;2.05;1.00;;;14.00;99.90;;;;;;5034024;28;20209;-81
2022/05/25 03:55:02;;;;;;;3.83;1.35;;;14.00;99.90;;;;;;5033965;28;20197;-80
2022/05/25 03:57:28;;;;;;;3.17;1.20;;;13.90;99.90;;;;;;5051460;28;20169;-81
2022/05/25 03:59:54;;;;;;;6.60;1.23;;;13.90;99.90;;;;;;5035006;28;20196;-81
2022/05/25 04:02:20;;;;;;;2.55;1.27;;;13.90;99.90;;;;;;5033595;28;20204;-81
2022/05/25 04:04:45;;;;;;;2.63;1.33;;;13.80;99.90;;;;;;5034839;28;20169;-81
2022/05/25 04:07:11;;;;;;;2.43;1.00;;;13.80;99.90;;;;;;5033730;28;20178;-81
2022/05/25 04:09:37;;;;;;;2.73;1.33;;;13.80;99.90;;;;;;5033324;28;20571;-81
2022/05/25 04:12:03;;;;;;;3.67;1.03;;;13.80;99.90;;;;;;5049044;28;20709;-81
2022/05/25 04:14:29;;;;;;;3.25;1.25;;;13.80;99.90;;;;;;5032534;28;20205;-81
2022/05/25 04:16:55;;;;;;;2.17;1.20;;;13.80;99.90;;;;;;5049163;28;20565;-81
2022/05/25 04:19:20;;;;;;;5.00;1.57;;;13.80;99.90;;;;;;5048693;28;20743;-81
2022/05/25 04:21:46;;;;;;;4.63;1.23;;;13.90;99.90;;;;;;5032036;28;20170;-81
2022/05/25 04:24:13;;;;;;;3.00;2.00;;;13.90;99.90;;;;;;5055933;23;20312;-88
2022/05/25 04:26:40;;;;;;;2.00;1.03;;;14.00;99.90;;;;;;5051346;28;20208;-88
2022/05/25 04:29:06;;;;;;;2.15;0.93;;;14.10;99.90;;;;;;5034008;28;20915;-88
2022/05/25 04:31:31;;;;;;;2.07;1.10;;;14.10;99.90;;;;;;5035098;28;20162;-89
2022/05/25 04:33:57;;;;;;;1.50;1.10;;;14.20;99.90;;;;;;5040691;28;20181;-89
2022/05/25 04:36:23;;;;;;;2.17;1.10;;;14.20;99.90;;;;;;5035478;28;20166;-90
2022/05/25 04:38:49;;;;;;;3.13;1.25;;;14.30;99.90;;;;;;5034131;28;20204;-89
2022/05/25 04:41:15;;;;;;;2.63;1.20;;;14.30;99.90;;;;;;5031619;28;20197;-89
2022/05/25 04:43:40;;;;;;;2.60;1.10;;;14.30;99.90;;;;;;5031915;28;20552;-85
2022/05/25 04:46:09;;;;;;;2.43;1.40;;;14.30;99.90;;;;;;5032879;28;20180;-87
2022/05/25 04:48:37;;;;;;;2.10;1.20;;;14.40;99.90;;;;;;5033079;28;20576;-85
2022/05/25 04:51:03;;;;;;;2.95;1.20;;;14.40;99.90;;;;;;5032214;28;20269;-86
2022/05/25 04:53:30;;;;;;;2.77;1.20;;;14.40;99.90;;;;;;5038988;28;20221;-86
2022/05/25 04:58:46;;;;;;;2.42;0.93;;;14.60;99.90;;;;;;5033065;28;20162;-86
2022/05/25 05:01:14;;;;;;;3.58;1.35;;;14.60;99.90;;;;;;5032420;28;20586;-88
2022/05/25 05:03:39;;;;;;;2.45;1.05;;;14.70;99.90;;;;;;5031742;28;20186;-88
2022/05/25 05:06:07;;;;;;;3.97;1.40;;;14.80;99.90;;;;;;5031849;28;20181;-87
2022/05/25 05:08:34;;;;;;;5.63;1.13;;;14.80;99.90;;;;;;5046091;28;20169;-86
2022/05/25 05:11:12;;;;;;;5.10;1.10;;;14.80;99.90;;;;;;5034308;28;20576;-87
2022/05/25 05:13:39;;;;;;;3.10;1.10;;;14.90;99.90;;;;;;5052393;28;20228;-86
2022/05/25 05:16:09;;;;;;;1.85;1.20;;;15.00;99.90;;;;;;5051546;28;20193;-86
2022/05/25 05:18:35;;;;;;;1.80;1.10;;;15.10;99.90;;;;;;5034185;28;20169;-86
2022/05/25 05:21:16;;;;;;;4.00;1.17;;;15.20;99.90;;;;;;5050606;28;20161;-86
2022/05/25 05:23:43;;;;;;;3.70;1.20;;;15.20;99.90;;;;;;5050811;28;20631;-87
2022/05/25 05:26:09;;;;;;;3.85;1.10;;;15.30;99.90;;;;;;5052454;28;20177;-87
2022/05/25 05:28:37;;;;;;;2.40;1.08;;;15.40;99.90;;;;;;5034419;28;20644;-84
2022/05/25 05:31:03;;;;;;;2.13;1.00;;;15.50;99.90;;;;;;5055877;28;20169;-86
2022/05/25 05:33:29;;;;;;;4.33;1.10;;;15.60;99.90;;;;;;5051513;28;20922;-85
2022/05/25 05:36:06;;;;;;;3.05;1.75;;;15.60;99.90;;;;;;5052172;28;20615;-85
2022/05/25 05:38:36;;;;;;;4.50;1.73;;;15.70;99.90;;;;;;5033943;28;20172;-86
2022/05/25 05:41:02;;;;;;;3.30;1.40;;;15.80;99.90;;;;;;5050742;28;20176;-85
2022/05/25 05:43:28;;;;;;;2.60;1.10;;;15.80;99.90;;;;;;5051717;28;20583;-86
2022/05/25 05:45:55;;;;;;;3.10;1.30;;;15.90;99.90;;;;;;5052301;28;20609;-86
2022/05/25 05:48:25;;;;;;;1.60;1.07;;;16.20;99.90;;;;;;5051896;28;20572;-86
2022/05/25 05:50:54;;;;;;;2.40;1.00;;;16.70;99.90;;;;;;5050432;28;20695;-82
2022/05/25 05:53:21;;;;;;;1.60;0.90;;;17.40;99.90;;;;;;5049705;28;20578;-82
2022/05/25 05:55:47;;;;;;;4.57;1.33;;;18.10;99.90;;;;;;5045851;28;21438;-81
2022/05/25 05:58:13;;;;;;;2.57;1.23;;;19.10;99.90;;;;;;5033386;28;20600;-80
2022/05/25 06:00:40;;;;;;;2.30;1.00;;;20.30;99.90;;;;;;5034283;28;20591;-79
2022/05/25 06:03:08;;;;;;;5.43;1.33;;;21.50;99.90;;;;;;5033541;28;20590;-80
2022/05/25 06:05:35;;;;;;;2.40;1.00;;;22.70;99.90;;;;;;5050893;28;20588;-80
2022/05/25 06:08:16;;;;;;;2.20;0.90;;;23.90;99.90;;;;;;5036974;28;21170;-81
2022/05/25 06:10:42;;;;;;;1.77;0.70;;;24.80;99.90;;;;;;5064064;28;20595;-79
2022/05/25 06:13:08;;;;;;;3.97;0.80;;;26.10;99.90;;;;;;5050911;28;20594;-80
2022/05/25 06:21:04;;;;;;;1.87;0.70;;;28.80;99.90;;;;;;5049150;28;21196;-78
2022/05/25 06:23:30;;;;;;;3.00;1.00;;;29.70;99.90;;;;;;5048964;28;20607;-78
2022/05/25 06:25:55;;;;;;;1.50;0.70;;;30.30;99.90;;;;;;5051337;28;20184;-77
2022/05/25 06:28:21;;;;;;;1.87;0.60;;;30.90;99.90;;;;;;5051159;28;20247;-77
2022/05/25 06:30:47;;;;;;;2.63;0.80;;;31.40;98.10;;;;;;5049246;28;20249;-77
2022/05/25 06:33:13;;;;;;;1.90;0.70;;;31.90;96.10;;;;;;5051134;28;20178;-77
2022/05/25 06:35:39;;;;;;;1.90;0.80;;;32.30;94.70;;;;;;5032769;28;20234;-77
2022/05/25 06:38:04;;;;;;;2.90;0.87;;;32.80;92.60;;;;;;5049168;28;20179;-77
2022/05/25 06:40:31;;;;;;;3.63;0.80;;;33.10;91.10;;;;;;5048179;28;20181;-76
2022/05/25 06:42:56;;;;;;;1.80;0.70;;;33.50;89.70;;;;;;5048869;28;20248;-75
2022/05/25 06:45:22;;;;;;;2.60;0.70;;;33.80;85.50;;;;;;5048831;28;20597;-75
2022/05/25 06:47:50;;;;;;;1.40;0.50;;;34.00;81.00;;;;;;5049362;28;20215;-76
2022/05/25 06:50:16;;;;;;;1.70;0.70;;;34.20;77.40;;;;;;5048638;28;20165;-75
2022/05/25 06:52:42;;;;;;;2.23;0.70;;;34.40;75.70;;;;;;5049790;28;20615;-75
2022/05/25 06:55:08;;;;;;;1.67;0.80;;;34.60;74.00;;;;;;5053357;28;20634;-75
2022/05/25 06:57:34;;;;;;;1.50;0.60;;;35.00;73.30;;;;;;5054953;28;20613;-76
2022/05/25 07:00:00;;;;;;;1.43;0.60;;;35.30;71.10;;;;;;5036167;28;20927;-76
2022/05/25 07:02:26;;;;;;;1.93;0.70;;;35.60;69.80;;;;;;5052294;28;20652;-76
2022/05/25 07:04:53;;;;;;;5.50;0.80;;;35.90;68.10;;;;;;5052238;28;20734;-76
2022/05/25 07:07:19;;;;;;;1.60;0.60;;;36.20;66.20;;;;;;5050895;28;20176;-74
2022/05/25 07:09:45;;;;;;;3.03;0.60;;;36.50;64.10;;;;;;5050927;28;20587;-75
2022/05/25 07:12:11;;;;;;;1.80;0.73;;;36.80;62.10;;;;;;5053886;28;20930;-75
2022/05/25 07:14:39;;;;;;;2.80;0.73;;;37.00;60.50;;;;;;5052692;28;20193;-75
2022/05/25 07:17:06;;;;;;;2.23;0.63;;;37.10;58.80;;;;;;5036140;28;20180;-75
2022/05/25 07:19:32;;;;;;;2.03;0.60;;;37.20;56.70;;;;;;5051629;28;20658;-75
2022/05/25 07:21:58;;;;;;;1.53;0.60;;;37.20;56.30;;;;;;5052396;28;20576;-76
2022/05/25 07:24:24;;;;;;;2.23;0.60;;;37.40;55.70;;;;;;5052156;28;20638;-76
2022/05/25 07:26:49;;;;;;;2.30;0.70;;;37.50;55.10;;;;;;5035683;28;20571;-76
2022/05/25 07:29:15;;;;;;;4.10;0.57;;;37.60;54.00;;;;;;5053028;28;20169;-77
2022/05/25 07:31:52;;;;;;;1.73;0.50;;;37.70;53.50;;;;;;5052359;28;20165;-76
2022/05/25 07:34:20;;;;;;;1.50;0.60;;;37.80;51.50;;;;;;5050860;28;20204;-75
2022/05/25 07:36:50;;;;;;;3.50;0.50;;;37.80;50.80;;;;;;5052296;28;20593;-77
2022/05/25 07:39:18;;;;;;;1.70;0.60;;;37.80;50.80;;;;;;5051488;28;20608;-76
2022/05/25 07:41:50;;;;;;;1.80;0.60;;;37.90;50.40;;;;;;5052818;28;20581;-76
2022/05/25 07:44:23;;;;;;;1.30;0.50;;;37.90;49.10;;;;;;5035375;28;20633;-76
2022/05/25 07:46:49;;;;;;;1.87;0.60;;;38.00;48.60;;;;;;5048893;28;20599;-76
2022/05/25 07:49:16;;;;;;;1.30;0.40;;;38.10;48.70;;;;;;5042637;28;20599;-76
2022/05/25 07:51:41;;;;;;;1.70;0.60;;;38.10;48.80;;;;;;5050807;28;20587;-75
2022/05/25 07:54:09;;;;;;;1.20;0.50;;;38.20;47.80;;;;;;5045772;28;20723;-75
2022/05/25 07:56:37;;;;;;;1.37;0.40;;;38.40;47.20;;;;;;5047989;28;20583;-74
2022/05/25 07:59:06;;;;;;;2.17;0.60;;;38.50;46.50;;;;;;5043611;28;20580;-74
2022/05/25 08:07:10;;;;;;;1.20;0.40;;;38.70;44.70;;;;;;5050269;28;20679;-75
2022/05/25 08:09:36;;;;;;;2.43;0.77;;;38.80;44.70;;;;;;5050101;28;21215;-75
2022/05/25 08:12:06;;;;;;;1.30;0.60;;;38.80;43.80;;;;;;5051190;28;20663;-75
2022/05/25 08:14:32;;;;;;;2.37;0.40;;;38.80;43.00;;;;;;5050321;28;20611;-75
2022/05/25 08:16:58;;;;;;;2.23;0.50;;;38.80;42.80;;;;;;5051091;28;20625;-76
2022/05/25 08:19:24;;;;;;;1.40;0.40;;;38.90;42.40;;;;;;5033888;28;20555;-76
2022/05/25 08:21:51;;;;;;;1.30;0.40;;;38.90;42.50;;;;;;5052018;28;20595;-76
2022/05/25 08:24:17;;;;;;;1.33;0.43;;;39.00;41.90;;;;;;5035287;28;20615;-76
2022/05/25 08:26:43;;;;;;;1.83;0.40;;;39.00;41.40;;;;;;5052211;28;20625;-76
2022/05/25 08:29:10;;;;;;;1.13;0.33;;;39.10;41.00;;;;;;5051778;28;20614;-76
2022/05/25 08:31:36;;;;;;;2.03;0.40;;;39.20;41.00;;;;;;5053152;28;20536;-76
2022/05/25 08:34:03;;;;;;;1.20;0.37;;;39.20;40.70;;;;;;5035289;28;20649;-76
2022/05/25 08:36:29;;;;;;;1.40;0.40;;;39.30;40.20;;;;;;5052159;28;20246;-76
2022/05/25 08:38:55;;;;;;;2.23;0.57;;;39.30;39.80;;;;;;5053256;28;20563;-76
2022/05/25 08:41:34;;;;;;;2.67;0.47;;;39.30;39.10;;;;;;5034676;28;20579;-76
2022/05/25 08:44:02;;;;;;;1.53;0.40;;;39.30;38.80;;;;;;5051989;28;20614;-74
2022/05/25 08:46:30;;;;;;;1.30;0.40;;;39.40;38.90;;;;;;5052143;28;20571;-75
2022/05/25 08:48:58;;;;;;;1.10;0.33;;;39.30;37.60;;;;;;5034993;28;20644;-75
2022/05/25 08:51:27;;;;;;;1.30;0.40;;;39.20;37.60;;;;;;5051161;28;20567;-75
2022/05/25 08:53:57;;;;;;;1.83;0.50;;;39.30;37.60;;;;;;5053005;28;20602;-74
2022/05/25 08:56:40;;;;;;;3.87;0.40;;;39.30;36.90;;;;;;5052980;28;20721;-75
2022/05/25 08:59:14;;;;;;;1.50;0.40;;;39.20;36.20;;;;;;5051113;28;20579;-75
2022/05/25 09:01:47;;;;;;;1.20;0.40;;;39.20;36.50;;;;;;5051470;28;20563;-75
2022/05/25 09:04:23;;;;;;;1.50;0.40;;;39.20;36.10;;;;;;5051442;28;20634;-75
2022/05/25 09:07:07;;;;;;;1.43;0.50;;;39.20;36.30;;;;;;5053723;28;20576;-74
2022/05/25 09:09:39;;;;;;;1.20;0.40;;;39.30;35.90;;;;;;5052207;28;20568;-74
2022/05/25 09:12:29;;;;;;;1.13;0.33;;;39.30;35.30;;;;;;5051443;28;20627;-74
2022/05/25 09:15:19;;;;;;;1.20;0.40;;;39.30;35.30;;;;;;5052438;28;20603;-75
2022/05/25 09:17:51;;;;;;;1.20;0.40;;;39.40;34.90;;;;;;5048013;28;20598;-74
2022/05/25 09:20:25;;;;;;;1.10;0.40;;;39.30;34.40;;;;;;5051758;28;20671;-76
2022/05/25 09:22:52;;;;;;;1.03;0.30;;;39.40;34.20;;;;;;5051348;28;20575;-77
2022/05/25 09:25:18;;;;;;;1.10;0.33;;;39.30;34.40;;;;;;5050273;28;20751;-76
2022/05/25 09:28:07;;;;;;;1.13;0.40;;;39.40;34.80;;;;;;5050356;28;20754;-76
2022/05/25 09:30:37;;;;;;;1.00;0.30;;;39.40;34.00;;;;;;5050738;28;20664;-75
2022/05/25 09:33:15;;;;;;;1.83;0.50;;;39.40;33.90;;;;;;5050196;28;20566;-76
2022/05/25 09:35:55;;;;;;;1.30;0.40;;;39.40;33.40;;;;;;5051530;28;20965;-76
2022/05/25 09:38:35;;;;;;;1.03;0.30;;;39.50;33.60;;;;;;5050220;28;20567;-76
2022/05/25 09:41:06;;;;;;;3.13;0.43;;;39.70;33.70;;;;;;5049320;28;20575;-76
2022/05/25 09:43:33;;;;;;;2.20;0.40;;;39.80;33.30;;;;;;5033229;28;20610;-76
2022/05/25 09:46:08;;;;;;;1.60;0.53;;;39.80;33.40;;;;;;5049732;28;20705;-76
2022/05/25 09:48:41;;;;;;;1.50;0.40;;;39.90;32.90;;;;;;5034320;28;20559;-76
2022/05/25 09:51:40;;;;;;;1.23;0.40;;;39.80;32.30;;;;;;5050502;28;20555;-76
2022/05/25 09:54:14;;;;;;;1.40;0.37;;;39.70;32.00;;;;;;5049868;28;21052;-76
2022/05/25 09:56:44;;;;;;;1.10;0.40;;;39.60;32.20;;;;;;5049880;28;20571;-76
2022/05/25 09:59:14;;;;;;;1.47;0.30;;;39.50;32.20;;;;;;5049316;28;20919;-76
2022/05/25 10:01:45;;;;;;;1.07;0.33;;;39.50;31.90;;;;;;5050572;28;20548;-76
2022/05/25 10:04:34;;;;;;;1.13;0.30;;;39.50;31.80;;;;;;5049705;28;20594;-76
2022/05/25 10:07:19;;;;;;;1.00;0.30;;;39.40;31.30;;;;;;5049796;28;20621;-75
2022/05/25 10:09:49;;;;;;;1.30;0.40;;;39.30;31.50;;;;;;5048810;28;20925;-75
2022/05/25 10:12:20;;;;;;;1.10;0.30;;;39.20;31.30;;;;;;5050985;28;21126;-76
2022/05/25 10:14:56;;;;;;;1.10;0.30;;;39.20;31.00;;;;;;5049408;28;20691;-76
2022/05/25 10:17:40;;;;;;;1.10;0.30;;;39.10;31.30;;;;;;5050985;28;20938;-76
2022/05/25 10:20:28;;;;;;;1.10;0.40;;;39.10;30.70;;;;;;5048881;28;20594;-76
2022/05/25 10:25:56;;;;;;;1.30;0.50;;;39.00;30.30;;;;;;5070817;28;20780;-78
2022/05/25 10:28:36;;;;;;;1.60;0.47;;;38.80;30.50;;;;;;5068880;28;20927;-79
2022/05/25 10:37:07;;;;;;;1.33;0.40;;;38.80;30.50;;;;;;5067270;28;20601;-78
2022/05/25 10:39:59;;;;;;;1.20;0.43;;;38.80;30.90;;;;;;5067897;28;20587;-78
2022/05/25 10:42:37;;;;;;;1.20;0.50;;;38.80;29.90;;;;;;5068635;28;20164;-78
2022/05/25 10:45:13;;;;;;;1.10;0.40;;;38.70;30.00;;;;;;5068095;28;20626;-77
2022/05/25 10:47:57;;;;;;;1.77;0.40;;;38.40;29.60;;;;;;5068509;28;20559;-78
2022/05/25 10:50:47;;;;;;;1.10;0.40;;;38.10;29.70;;;;;;5049812;28;20567;-77
2022/05/25 10:53:31;;;;;;;1.10;0.40;;;37.80;29.90;;;;;;5068592;28;21079;-77
2022/05/25 10:56:38;;;;;;;1.10;0.40;;;37.40;30.00;;;;;;5067072;28;20567;-77
2022/05/25 10:59:18;;;;;;;2.83;0.53;;;37.10;30.40;;;;;;5067563;28;20729;-78
2022/05/25 11:02:06;;;;;;;1.50;0.40;;;36.80;30.00;;;;;;5067985;28;20569;-78
2022/05/25 11:04:53;;;;;;;1.63;0.73;;;36.50;30.00;;;;;;5072827;28;20638;-78
2022/05/25 11:07:34;;;;;;;1.50;0.67;;;36.10;30.20;;;;;;5066838;28;20570;-78
2022/05/25 11:10:17;;;;;;;1.70;0.70;;;35.70;29.80;;;;;;5067104;28;20906;-78
2022/05/25 11:12:56;;;;;;;1.43;0.63;;;35.30;29.30;;;;;;5066753;28;20672;-78
2022/05/25 11:15:45;;;;;;;1.47;0.60;;;34.60;29.40;;;;;;5067897;28;20613;-78
2022/05/25 11:18:49;;;;;;;1.70;0.63;;;33.90;29.50;;;;;;5067802;28;20569;-78
2022/05/25 11:21:27;;;;;;;1.13;0.40;;;33.40;30.30;;;;;;5066792;28;20580;-78
2022/05/25 11:24:09;;;;;;;1.50;0.40;;;33.20;31.00;;;;;;5066810;28;20643;-78
2022/05/25 11:26:43;;;;;;;2.03;0.50;;;33.00;30.80;;;;;;5066138;28;20573;-78
2022/05/25 11:29:23;;;;;;;1.77;0.70;;;32.70;31.40;;;;;;5065826;28;20579;-78
2022/05/25 11:31:58;;;;;;;2.07;0.60;;;32.50;31.40;;;;;;5049370;28;20610;-79
2022/05/25 11:35:04;;;;;;;1.33;0.60;;;32.30;31.70;;;;;;5067606;28;20595;-78
2022/05/25 11:37:42;;;;;;;1.90;0.70;;;32.30;31.90;;;;;;5052493;28;20564;-78
2022/05/25 11:40:11;;;;;;;1.87;0.57;;;32.30;32.00;;;;;;5054982;28;20749;-77
2022/05/25 11:42:39;;;;;;;2.33;0.50;;;32.30;32.30;;;;;;5052958;28;20569;-79
2022/05/25 11:45:28;;;;;;;1.40;0.40;;;32.40;33.20;;;;;;5053218;28;20635;-78
2022/05/25 11:48:39;;;;;;;2.63;0.90;;;32.40;32.20;;;;;;5054289;28;20577;-79
2022/05/25 11:51:34;;;;;;;2.07;0.80;;;32.40;32.10;;;;;;5049733;28;20602;-78
2022/05/25 11:54:33;;;;;;;2.37;0.80;;;32.10;31.70;;;;;;5035833;28;20595;-78
2022/05/25 11:56:59;;;;;;;1.60;0.70;;;31.60;31.50;;;;;;5053544;28;20666;-79
2022/05/25 11:59:37;;;;;;;1.40;0.60;;;31.00;31.60;;;;;;5052232;28;20726;-78
2022/05/25 12:02:18;;;;;;;1.27;0.50;;;30.60;32.00;;;;;;5052978;28;20169;-79
2022/05/25 12:04:53;;;;;;;1.43;0.50;;;30.20;32.30;;;;;;5053598;28;20635;-78
2022/05/25 12:08:02;;;;;;;2.33;0.93;;;29.80;32.20;;;;;;5053676;28;20563;-78
2022/05/25 12:10:40;;;;;;;1.30;0.60;;;29.40;32.80;;;;;;5051203;28;20967;-79
2022/05/25 12:13:10;;;;;;;2.17;1.13;;;28.90;32.10;;;;;;5053552;28;20606;-78
2022/05/25 12:15:56;;;;;;;2.90;2.07;;;28.50;32.40;;;;;;5053612;28;20889;-78
2022/05/25 12:18:32;;;;;;;2.53;1.57;;;28.20;33.10;;;;;;5054259;28;20710;-79
2022/05/25 12:21:08;;;;;;;1.87;1.10;;;28.00;33.80;;;;;;5052655;28;20721;-79
2022/05/25 12:23:37;;;;;;;1.70;0.80;;;28.10;34.50;;;;;;5051996;28;20598;-78
2022/05/25 12:26:22;;;;;;;1.30;0.60;;;28.10;35.00;;;;;;5053044;28;20614;-78
2022/05/25 12:28:50;;;;;;;1.40;0.60;;;28.30;35.80;;;;;;5051865;28;20575;-78
2022/05/25 12:31:20;;;;;;;2.13;0.60;;;28.50;35.80;;;;;;5052207;28;20570;-78
2022/05/25 12:33:48;;;;;;;1.47;0.50;;;28.70;36.00;;;;;;5053022;28;20587;-78
2022/05/25 12:36:15;;;;;;;1.40;0.53;;;28.90;35.80;;;;;;5052698;28;20622;-78
2022/05/25 12:38:41;;;;;;;2.23;0.70;;;29.00;35.60;;;;;;5035171;28;20563;-78
2022/05/25 12:41:25;;;;;;;2.33;0.80;;;29.10;35.30;;;;;;5051977;28;21260;-78
2022/05/25 12:43:56;;;;;;;1.40;0.50;;;29.00;34.80;;;;;;5052614;28;20684;-78
2022/05/25 12:49:43;;;;;;;1.50;0.50;;;28.70;33.80;;;;;;5051493;28;20663;-78
2022/05/25 12:52:27;;;;;;;2.27;0.80;;;28.50;33.90;;;;;;5052732;28;20568;-79
2022/05/25 12:55:01;;;;;;;2.13;0.50;;;28.20;34.40;;;;;;5056695;28;20691;-78
2022/05/25 12:57:41;;;;;;;3.80;0.60;;;27.90;33.90;;;;;;5052601;28;20585;-79
2022/05/25 13:00:25;;;;;;;2.53;0.80;;;27.60;34.10;;;;;;5050319;28;20611;-79
2022/05/25 13:02:52;;;;;;;1.43;0.60;;;27.30;34.90;;;;;;5052325;28;21177;-78
2022/05/25 13:05:47;;;;;;;1.37;0.50;;;27.10;34.70;;;;;;5052150;28;20627;-79
2022/05/25 13:08:47;;;;;;;1.93;0.60;;;26.90;35.20;;;;;;5041830;28;20938;-79
2022/05/25 13:11:31;;;;;;;2.57;0.80;;;26.60;35.70;;;;;;5050810;28;20613;-79
2022/05/25 13:14:16;;;;;;;2.50;0.70;;;26.40;35.80;;;;;;5051854;28;20599;-79
2022/05/25 13:16:46;;;;;;;4.37;0.60;;;26.30;36.10;;;;;;5034506;28;20971;-79
2022/05/25 13:19:39;;;;;;;1.30;0.60;;;26.30;36.00;;;;;;5064266;28;21159;-79
2022/05/25 13:22:14;;;;;;;2.23;1.23;;;26.20;36.60;;;;;;5063214;28;20579;-79
2022/05/25 13:25:08;;;;;;;3.10;1.07;;;26.10;36.20;;;;;;5071588;28;20668;-79
2022/05/25 13:27:53;;;;;;;2.13;0.60;;;26.10;35.80;;;;;;5071249;28;20563;-79
2022/05/25 13:30:33;;;;;;;1.37;0.50;;;26.10;35.90;;;;;;5075278;28;20600;-79
2022/05/25 13:33:01;;;;;;;2.03;0.63;;;26.10;36.20;;;;;;5071015;28;20660;-79
2022/05/25 13:35:36;;;;;;;1.40;0.60;;;26.10;36.30;;;;;;5071877;28;21001;-80
2022/05/25 13:38:21;;;;;;;2.47;1.23;;;26.10;36.70;;;;;;5071664;28;20678;-80
2022/05/25 13:40:51;;;;;;;2.20;0.60;;;26.10;37.00;;;;;;5069660;28;20570;-80
2022/05/25 13:43:29;;;;;;;1.57;0.60;;;26.10;36.60;;;;;;5071883;28;20647;-80